McDonough, Georgia
Current Conditions -  °F | °C
As of 7:15 PM on Saturday 20 Dec 2014 (Local Time) from KCVC Reporting Station
Haze Haze  
Wind Chill: 50°   Ceiling: 600
Heat Index: 50°   Visibility: 4mi
Dew Point: 46°   Wind: 6mph
Humidity: 87%   Direction: 30°NNE
Pressure: 30.19"   Gusts: NA
Location:  33.45°N, 84.14°W
Report Text: KCVC 210015Z AUTO 03005KT 4SM BR OVC006 10/08 A3019 RMK AO2
Loading
Personal Weather Stations






























Interactive Weather Map New forecast layout! Learn more

10-Day Weather Forecast

Advertisements
Track Severe Weather on mobile